createdAt,value
2022-08-08T00:02:30.052Z,6.30
2022-08-08T00:04:53.194Z,5.50
2022-08-08T00:07:29.796Z,7.27
2022-08-08T00:10:06.917Z,7.57
2022-08-08T00:12:48.588Z,5.70
2022-08-08T00:15:56.932Z,7.33
2022-08-08T00:18:23.409Z,8.03
2022-08-08T00:20:58.396Z,7.20
2022-08-08T00:23:43.024Z,8.50
2022-08-08T00:26:26.277Z,7.40
2022-08-08T00:29:08.089Z,8.10
2022-08-08T00:32:29.187Z,8.87
2022-08-08T00:35:04.498Z,8.00
2022-08-08T00:37:47.940Z,8.47
2022-08-08T00:41:21.930Z,8.23
2022-08-08T00:44:10.822Z,8.43
2022-08-08T00:47:00.514Z,8.47
2022-08-08T00:50:22.099Z,9.30
2022-08-08T00:52:58.033Z,8.00
2022-08-08T00:56:01.503Z,9.43
2022-08-08T00:59:07.725Z,8.70
2022-08-08T01:01:45.511Z,9.47
2022-08-08T01:04:57.544Z,8.27
2022-08-08T01:08:03.336Z,9.43
2022-08-08T01:11:08.364Z,9.50
2022-08-08T01:14:16.380Z,9.03
2022-08-08T01:17:25.333Z,9.63
2022-08-08T01:20:34.866Z,9.70
2022-08-08T01:24:06.159Z,9.20
2022-08-08T01:26:54.578Z,10.60
2022-08-08T01:29:35.243Z,9.30
2022-08-08T01:32:52.683Z,10.70
2022-08-08T01:35:52.850Z,10.40
2022-08-08T01:38:57.109Z,9.80
2022-08-08T01:41:34.025Z,10.70
2022-08-08T01:44:27.066Z,9.63
2022-08-08T01:48:01.741Z,9.73
2022-08-08T01:50:20.857Z,10.60
2022-08-08T01:54:33.575Z,9.57
2022-08-08T01:56:30.051Z,9.50
2022-08-08T01:58:57.831Z,10.30
2022-08-08T02:01:59.744Z,10.43
2022-08-08T02:04:35.691Z,10.30
2022-08-08T02:07:07.364Z,10.53
2022-08-08T02:10:11.489Z,10.30
2022-08-08T02:12:51.244Z,9.67
2022-08-08T02:15:30.469Z,11.00
2022-08-08T02:18:12.433Z,10.80
2022-08-08T02:21:13.412Z,11.37
2022-08-08T02:23:49.185Z,12.30
2022-08-08T02:26:29.584Z,11.30
2022-08-08T02:29:20.925Z,11.47
2022-08-08T02:32:15.797Z,11.70
2022-08-08T02:35:11.906Z,10.20
2022-08-08T02:38:09.163Z,11.13
2022-08-08T02:40:45.257Z,11.00
2022-08-08T02:44:38.439Z,10.80
2022-08-08T02:47:10.718Z,11.30
2022-08-08T02:50:17.613Z,11.80
2022-08-08T02:52:56.291Z,13.40
2022-08-08T02:55:57.855Z,11.83
2022-08-08T02:59:37.112Z,10.93
2022-08-08T03:03:00.846Z,10.80
2022-08-08T03:06:07.231Z,10.93
2022-08-08T03:09:05.011Z,10.83
2022-08-08T03:12:35.878Z,11.37
2022-08-08T03:16:01.151Z,10.73
2022-08-08T03:18:31.091Z,11.03
2022-08-08T03:21:01.043Z,11.93
2022-08-08T03:23:54.781Z,10.77
2022-08-08T03:26:42.270Z,12.13
2022-08-08T03:29:27.072Z,10.03
2022-08-08T03:32:23.467Z,11.37
2022-08-08T03:34:57.617Z,10.93
2022-08-08T03:38:53.134Z,12.70
2022-08-08T03:40:29.488Z,12.00
2022-08-08T03:42:58.617Z,12.80
2022-08-08T03:46:04.775Z,11.50
2022-08-08T03:49:10.078Z,11.37
2022-08-08T03:51:26.569Z,11.87
2022-08-08T03:54:08.450Z,12.90
2022-08-08T03:56:37.684Z,13.00
2022-08-08T03:59:05.524Z,13.27
2022-08-08T04:02:12.948Z,14.10
2022-08-08T04:04:30.948Z,12.03
2022-08-08T04:07:01.144Z,13.00
2022-08-08T04:09:58.689Z,11.90
2022-08-08T04:12:18.449Z,12.03
2022-08-08T04:14:50.699Z,13.27
2022-08-08T04:17:45.888Z,12.00
2022-08-08T04:20:08.311Z,12.23
2022-08-08T04:22:36.439Z,12.73
2022-08-08T04:25:05.013Z,11.90
2022-08-08T04:28:03.008Z,10.70
2022-08-08T04:30:23.082Z,12.30
2022-08-08T04:32:51.649Z,12.47
2022-08-08T04:35:22.336Z,12.50
2022-08-08T04:37:50.553Z,13.27
2022-08-08T04:40:19.478Z,12.07
2022-08-08T04:42:56.985Z,11.67
2022-08-08T04:45:25.951Z,13.40
2022-08-08T04:47:54.318Z,11.40
2022-08-08T04:50:23.799Z,12.20
2022-08-08T04:52:58.904Z,9.90
2022-08-08T04:55:47.217Z,10.17
2022-08-08T04:58:22.459Z,10.47
2022-08-08T05:00:51.621Z,11.27
2022-08-08T05:04:11.680Z,10.33
2022-08-08T05:06:13.007Z,11.30
2022-08-08T05:08:51.576Z,10.43
2022-08-08T05:11:23.826Z,10.90
2022-08-08T05:14:00.821Z,9.57
2022-08-08T05:16:53.442Z,10.40
2022-08-08T05:20:09.311Z,10.07
2022-08-08T05:22:06.323Z,10.80
2022-08-08T05:24:34.578Z,10.17
2022-08-08T05:27:05.546Z,8.70
2022-08-08T05:29:35.711Z,9.40
2022-08-08T05:32:06.428Z,9.43
2022-08-08T05:34:37.377Z,10.93
2022-08-08T05:37:16.015Z,10.90
2022-08-08T05:39:51.066Z,9.47
2022-08-08T05:42:25.803Z,9.37
2022-08-08T05:44:57.403Z,9.53
2022-08-08T05:47:41.512Z,9.20
2022-08-08T05:50:18.814Z,9.90
2022-08-08T05:52:48.125Z,9.60
2022-08-08T05:55:15.689Z,9.80
2022-08-08T05:58:04.293Z,10.20
2022-08-08T06:00:36.065Z,10.17
2022-08-08T06:03:24.701Z,8.63
2022-08-08T06:05:56.652Z,9.10
2022-08-08T06:08:34.876Z,9.40
2022-08-08T06:11:04.375Z,8.50
2022-08-08T06:13:35.801Z,8.70
2022-08-08T06:16:06.631Z,8.10
2022-08-08T06:18:36.309Z,9.20
2022-08-08T06:21:27.969Z,8.93
2022-08-08T06:24:05.157Z,8.80
2022-08-08T06:26:50.638Z,8.27
2022-08-08T06:30:00.337Z,8.57
2022-08-08T06:32:22.604Z,8.17
2022-08-08T06:35:11.724Z,7.43
2022-08-08T06:37:46.618Z,7.00
2022-08-08T06:40:19.185Z,8.70
2022-08-08T06:42:56.101Z,7.30
2022-08-08T06:45:24.505Z,7.97
2022-08-08T06:48:00.743Z,8.80
2022-08-08T06:50:33.394Z,7.37
2022-08-08T06:53:14.025Z,7.23
2022-08-08T06:55:46.968Z,7.30
2022-08-08T06:58:15.242Z,7.40
2022-08-08T07:00:49.703Z,7.90
2022-08-08T07:03:52.215Z,8.13
2022-08-08T07:06:21.401Z,7.63
2022-08-08T07:08:52.957Z,7.20
2022-08-08T07:11:22.605Z,7.20
2022-08-08T07:14:00.408Z,6.87
2022-08-08T07:16:50.893Z,7.50
2022-08-08T07:19:31.318Z,6.63
2022-08-08T07:22:12.009Z,6.90
2022-08-08T07:24:52.947Z,6.90
2022-08-08T07:27:27.627Z,6.60
2022-08-08T07:30:09.994Z,6.43
2022-08-08T07:32:42.565Z,6.43
2022-08-08T07:35:14.129Z,6.60
2022-08-08T07:38:04.618Z,5.90
2022-08-08T07:40:32.971Z,5.63
2022-08-08T07:43:04.100Z,6.80
2022-08-08T07:46:05.585Z,5.83
2022-08-08T07:48:24.065Z,5.63
2022-08-08T07:50:58.601Z,5.90
2022-08-08T07:54:01.404Z,6.43
2022-08-08T07:56:35.503Z,5.93
2022-08-08T07:59:10.900Z,6.40
2022-08-08T08:02:33.682Z,5.77
2022-08-08T08:04:39.864Z,7.10
2022-08-08T08:07:10.906Z,6.33
2022-08-08T08:09:42.077Z,6.10
2022-08-08T08:12:26.588Z,6.10
2022-08-08T08:15:04.433Z,6.43
2022-08-08T08:17:47.497Z,6.37
2022-08-08T08:20:19.274Z,6.50
2022-08-08T08:22:49.620Z,6.27
2022-08-08T08:25:19.386Z,6.23
2022-08-08T08:28:05.147Z,6.87
2022-08-08T08:30:38.048Z,5.57
2022-08-08T08:33:05.849Z,5.50
2022-08-08T08:36:20.241Z,6.13
2022-08-08T08:38:29.115Z,5.13
2022-08-08T08:40:59.950Z,6.13
2022-08-08T08:43:29.078Z,5.60
2022-08-08T08:45:58.584Z,6.00
2022-08-08T08:48:32.201Z,5.60
2022-08-08T08:51:03.290Z,5.50
2022-08-08T08:53:56.339Z,5.33
2022-08-08T08:56:26.377Z,6.23
2022-08-08T08:58:58.048Z,5.80
2022-08-08T09:01:30.721Z,5.33
2022-08-08T09:04:06.681Z,5.40
2022-08-08T09:06:40.459Z,5.73
2022-08-08T09:09:35.095Z,6.17
2022-08-08T09:12:10.382Z,6.00
2022-08-08T09:14:42.507Z,5.87
2022-08-08T09:17:17.425Z,6.83
2022-08-08T09:21:58.546Z,7.20
2022-08-08T09:22:35.244Z,6.63
2022-08-08T09:25:07.444Z,6.53
2022-08-08T09:27:55.677Z,5.83
2022-08-08T09:30:27.803Z,6.37
2022-08-08T09:33:12.614Z,6.63
2022-08-08T09:35:49.739Z,6.20
2022-08-08T09:38:31.849Z,6.00
2022-08-08T09:41:06.081Z,5.93
2022-08-08T09:44:06.560Z,5.80
2022-08-08T09:46:34.830Z,6.10
2022-08-08T09:49:18.190Z,6.00
2022-08-08T09:52:07.019Z,5.53
2022-08-08T09:54:44.042Z,5.53
2022-08-08T09:57:19.184Z,6.00
2022-08-08T10:00:14.828Z,6.20
2022-08-08T10:02:41.823Z,5.73
2022-08-08T10:05:25.053Z,5.97
2022-08-08T10:08:00.480Z,5.60
2022-08-08T10:10:32.333Z,5.70
2022-08-08T10:13:14.399Z,5.43
2022-08-08T10:16:00.574Z,5.90
2022-08-08T10:18:31.721Z,4.93
2022-08-08T10:21:08.492Z,5.33
2022-08-08T10:23:57.907Z,5.03
2022-08-08T10:26:52.016Z,5.20
2022-08-08T10:29:28.220Z,4.67
2022-08-08T10:32:27.075Z,5.50
2022-08-08T10:35:01.431Z,5.47
2022-08-08T10:37:31.853Z,5.57
2022-08-08T10:40:12.609Z,5.17
2022-08-08T10:42:45.507Z,5.97
2022-08-08T10:45:15.909Z,5.30
2022-08-08T10:47:48.723Z,5.50
2022-08-08T10:50:23.879Z,4.60
2022-08-08T10:52:51.965Z,4.87
2022-08-08T10:55:39.359Z,5.17
2022-08-08T10:58:09.440Z,4.87
2022-08-08T11:00:53.052Z,4.80
2022-08-08T11:04:01.449Z,5.67
2022-08-08T11:06:31.319Z,4.20
2022-08-08T11:09:03.416Z,3.93
2022-08-08T11:12:06.092Z,4.80
2022-08-08T11:14:27.629Z,4.43
2022-08-08T11:16:57.516Z,3.80
2022-08-08T11:19:28.678Z,3.60
2022-08-08T11:21:59.913Z,3.00
2022-08-08T11:24:29.177Z,2.70
2022-08-08T11:27:10.694Z,2.50
2022-08-08T11:30:04.345Z,2.67
2022-08-08T11:32:40.729Z,2.10
2022-08-08T11:35:23.542Z,2.27
2022-08-08T11:38:36.330Z,2.60
2022-08-08T11:40:46.442Z,2.40
2022-08-08T11:43:18.691Z,2.40
2022-08-08T11:46:09.191Z,2.40
2022-08-08T11:48:41.842Z,2.13
2022-08-08T11:51:30.545Z,2.30
2022-08-08T11:54:02.395Z,2.30
2022-08-08T11:56:34.381Z,2.27
2022-08-08T11:59:09.673Z,2.10
2022-08-08T12:01:38.066Z,3.10
2022-08-08T12:04:10.001Z,2.20
2022-08-08T12:06:39.424Z,3.00
2022-08-08T12:09:17.267Z,2.30
2022-08-08T12:11:49.659Z,2.57
2022-08-08T12:14:23.910Z,2.77
2022-08-08T12:16:57.127Z,2.27
2022-08-08T12:19:37.694Z,2.10
2022-08-08T12:22:20.918Z,2.13
2022-08-08T12:24:51.289Z,2.33
2022-08-08T12:27:26.855Z,2.23
2022-08-08T12:29:57.232Z,2.10
2022-08-08T12:32:24.949Z,2.13
2022-08-08T12:35:04.719Z,2.10
2022-08-08T12:38:01.644Z,2.60
2022-08-08T12:40:44.436Z,2.63
2022-08-08T12:43:32.067Z,2.30
2022-08-08T12:46:03.464Z,2.30
2022-08-08T12:48:38.659Z,2.30
2022-08-08T12:51:19.667Z,2.83
2022-08-08T12:53:59.088Z,2.47
2022-08-08T12:56:33.932Z,2.80
2022-08-08T12:59:02.027Z,2.37
2022-08-08T13:01:37.839Z,2.27
2022-08-08T13:04:18.540Z,2.20
2022-08-08T13:07:01.084Z,2.73
2022-08-08T13:10:01.909Z,2.90
2022-08-08T13:12:30.111Z,2.70
2022-08-08T13:14:58.827Z,2.50
2022-08-08T13:18:07.680Z,2.90
2022-08-08T13:20:18.302Z,2.50
2022-08-08T13:22:47.703Z,2.53
2022-08-08T13:25:16.277Z,2.53
2022-08-08T13:27:44.788Z,2.70
2022-08-08T13:30:20.840Z,2.80
2022-08-08T13:32:56.611Z,2.50
2022-08-08T13:35:29.529Z,3.03
2022-08-08T13:38:08.626Z,3.17
2022-08-08T13:40:44.990Z,2.53
2022-08-08T13:43:16.035Z,2.93
2022-08-08T13:45:47.185Z,3.23
2022-08-08T13:48:16.982Z,2.50
2022-08-08T13:50:55.032Z,2.33
2022-08-08T13:53:34.221Z,2.47
2022-08-08T13:56:11.043Z,2.63
2022-08-08T13:58:56.183Z,2.70
2022-08-08T14:01:33.074Z,2.47
2022-08-08T14:04:22.366Z,1.97
2022-08-08T14:06:50.770Z,2.00
2022-08-08T14:09:29.896Z,2.13
2022-08-08T14:11:59.716Z,1.93
2022-08-08T14:14:41.909Z,1.93
2022-08-08T14:17:22.015Z,2.50
2022-08-08T14:19:57.430Z,2.57
2022-08-08T14:22:37.933Z,2.03
2022-08-08T14:25:15.427Z,2.37
2022-08-08T14:27:59.949Z,2.43
2022-08-08T14:30:35.324Z,2.63
2022-08-08T14:33:12.873Z,2.27
2022-08-08T14:35:43.120Z,2.23
2022-08-08T14:38:34.011Z,2.37
2022-08-08T14:41:11.458Z,2.57
2022-08-08T14:44:09.866Z,2.73
2022-08-08T14:46:34.211Z,2.57
2022-08-08T14:49:09.262Z,2.30
2022-08-08T14:51:53.261Z,2.50
2022-08-08T14:54:28.591Z,2.60
2022-08-08T14:56:58.778Z,2.63
2022-08-08T14:59:44.404Z,2.20
2022-08-08T15:02:25.254Z,2.77
2022-08-08T15:04:53.725Z,2.53
2022-08-08T15:07:24.520Z,2.30
2022-08-08T15:10:09.528Z,2.07
2022-08-08T15:12:40.145Z,2.13
2022-08-08T15:15:09.425Z,2.63
2022-08-08T15:17:37.730Z,2.43
2022-08-08T15:20:13.912Z,2.20
2022-08-08T15:22:44.689Z,2.40
2022-08-08T15:25:17.738Z,2.33
2022-08-08T15:28:32.382Z,2.03
2022-08-08T15:30:48.704Z,2.50
2022-08-08T15:33:35.083Z,2.00
2022-08-08T15:36:04.306Z,2.20
2022-08-08T15:38:31.914Z,2.20
2022-08-08T15:41:00.298Z,3.00
2022-08-08T15:43:35.152Z,2.27
2022-08-08T15:46:03.509Z,2.60
2022-08-08T15:48:31.131Z,2.70
2022-08-08T15:51:07.083Z,2.60
2022-08-08T15:53:49.592Z,2.87
2022-08-08T15:56:19.827Z,2.13
2022-08-08T15:58:49.522Z,2.87
2022-08-08T16:01:18.286Z,2.20
2022-08-08T16:03:51.583Z,2.70
2022-08-08T16:06:28.744Z,3.13
2022-08-08T16:13:00.191Z,2.57
2022-08-08T16:13:20.819Z,2.17
2022-08-08T16:14:38.231Z,2.00
2022-08-08T16:17:06.305Z,2.70
2022-08-08T16:19:59.682Z,2.77
2022-08-08T16:22:30.031Z,2.47
2022-08-08T16:24:58.276Z,2.30
2022-08-08T16:27:25.856Z,2.40
2022-08-08T16:30:12.983Z,2.33
2022-08-08T16:32:43.828Z,2.43
2022-08-08T16:35:18.857Z,3.07
2022-08-08T16:37:50.861Z,2.17
2022-08-08T16:40:19.879Z,2.20
2022-08-08T16:42:51.677Z,2.60
2022-08-08T16:46:37.767Z,2.30
2022-08-08T16:48:13.311Z,2.50
2022-08-08T16:50:41.311Z,2.10
2022-08-08T16:55:02.823Z,1.90
2022-08-08T16:56:00.493Z,2.23
2022-08-08T16:58:34.327Z,2.03
2022-08-08T17:01:05.791Z,2.10
2022-08-08T17:03:59.985Z,2.33
2022-08-08T17:06:36.209Z,2.47
2022-08-08T17:09:05.707Z,2.20
2022-08-08T17:11:39.251Z,2.03
2022-08-08T17:14:18.891Z,2.03
2022-08-08T17:16:57.551Z,2.67
2022-08-08T17:19:27.331Z,2.20
2022-08-08T17:21:55.046Z,2.23
2022-08-08T17:24:27.683Z,3.00
2022-08-08T17:26:57.871Z,2.40
2022-08-08T17:29:26.677Z,2.30
2022-08-08T17:31:57.451Z,2.30
2022-08-08T17:34:48.156Z,2.40
2022-08-08T17:37:13.828Z,2.37
2022-08-08T17:40:02.836Z,2.03
2022-08-08T17:42:29.250Z,1.93
2022-08-08T17:44:58.327Z,1.83
2022-08-08T17:47:37.610Z,1.90
2022-08-08T17:50:08.896Z,1.70
2022-08-08T17:52:38.069Z,1.93
2022-08-08T17:56:03.522Z,1.90
2022-08-08T17:57:55.406Z,2.23
2022-08-08T18:00:30.295Z,2.13
2022-08-08T18:03:08.030Z,2.00
2022-08-08T18:05:48.610Z,2.30
2022-08-08T18:08:41.333Z,2.60
2022-08-08T18:11:15.166Z,2.50
2022-08-08T18:13:44.408Z,2.00
2022-08-08T18:16:16.999Z,2.23
2022-08-08T18:18:54.656Z,2.20
2022-08-08T18:21:35.594Z,2.10
2022-08-08T18:24:19.192Z,1.90
2022-08-08T18:26:53.675Z,2.03
2022-08-08T18:29:29.613Z,2.07
2022-08-08T18:31:58.429Z,1.70
2022-08-08T18:34:28.134Z,2.17
2022-08-08T18:36:56.204Z,2.00
2022-08-08T18:39:27.855Z,2.10
2022-08-08T18:42:03.363Z,2.30
2022-08-08T18:44:32.838Z,2.10
2022-08-08T18:47:02.993Z,2.37
2022-08-08T18:49:57.842Z,2.40
2022-08-08T18:52:22.783Z,2.47
2022-08-08T18:55:00.700Z,2.63
2022-08-08T18:57:40.968Z,1.80
2022-08-08T19:00:16.619Z,2.50
2022-08-08T19:02:56.501Z,2.10
2022-08-08T19:05:32.005Z,2.13
2022-08-08T19:08:09.984Z,2.90
2022-08-08T19:10:41.196Z,2.30
2022-08-08T19:13:20.683Z,2.90
2022-08-08T19:15:51.903Z,2.27
2022-08-08T19:18:32.242Z,2.90
2022-08-08T19:21:29.477Z,2.53
2022-08-08T19:23:59.007Z,2.67
2022-08-08T19:26:30.804Z,2.47
2022-08-08T19:28:59.488Z,2.80
2022-08-08T19:31:31.031Z,2.60
2022-08-08T19:34:15.186Z,2.87
2022-08-08T19:36:48.972Z,2.97
2022-08-08T19:39:17.754Z,3.20
2022-08-08T19:41:47.250Z,3.10
2022-08-08T19:44:34.737Z,3.30
2022-08-08T19:47:04.242Z,3.83
2022-08-08T19:49:37.603Z,4.13
2022-08-08T19:52:10.503Z,4.00
2022-08-08T19:54:39.873Z,4.13
2022-08-08T19:57:09.109Z,4.10
2022-08-08T19:59:39.246Z,3.83
2022-08-08T20:02:07.369Z,4.27
2022-08-08T20:04:39.307Z,4.20
2022-08-08T20:08:27.201Z,4.90
2022-08-08T20:09:59.509Z,4.83
2022-08-08T20:12:32.290Z,5.17
2022-08-08T20:15:14.529Z,4.43
2022-08-08T20:17:46.171Z,4.70
2022-08-08T20:20:19.146Z,4.80
2022-08-08T20:22:54.033Z,4.20
2022-08-08T20:25:24.585Z,4.63
2022-08-08T20:27:54.564Z,4.93
2022-08-08T20:30:53.333Z,4.80
2022-08-08T20:33:20.245Z,3.90
2022-08-08T20:35:58.654Z,4.50
2022-08-08T20:38:32.083Z,4.10
2022-08-08T20:41:01.094Z,4.03
2022-08-08T20:43:43.341Z,4.30
2022-08-08T20:46:15.418Z,4.47
2022-08-08T20:48:42.981Z,3.80
2022-08-08T20:51:11.856Z,4.77
2022-08-08T20:53:58.352Z,4.80
2022-08-08T20:56:35.393Z,4.63
2022-08-08T20:59:05.677Z,4.40
2022-08-08T21:01:44.403Z,4.17
2022-08-08T21:04:23.207Z,3.90
2022-08-08T21:06:53.032Z,4.80
2022-08-08T21:09:22.826Z,4.47
2022-08-08T21:12:03.316Z,5.00
2022-08-08T21:14:34.822Z,4.50
2022-08-08T21:17:03.273Z,4.90
2022-08-08T21:19:45.896Z,5.10
2022-08-08T21:22:15.276Z,4.80
2022-08-08T21:24:53.478Z,4.60
2022-08-08T21:28:05.614Z,5.03
2022-08-08T21:30:18.197Z,4.33
2022-08-08T21:32:51.044Z,4.50
2022-08-08T21:36:17.190Z,4.90
2022-08-08T21:38:16.078Z,5.30
2022-08-08T21:40:54.826Z,5.27
2022-08-08T21:43:24.396Z,5.47
2022-08-08T21:48:01.533Z,5.20
2022-08-08T21:48:49.439Z,5.70
2022-08-08T21:52:09.781Z,5.03
2022-08-08T21:54:35.469Z,4.97
2022-08-08T21:56:59.469Z,5.60
2022-08-08T21:59:28.408Z,5.83
2022-08-08T22:02:15.839Z,5.70
2022-08-08T22:04:43.894Z,4.87
2022-08-08T22:07:11.902Z,4.97
2022-08-08T22:09:41.297Z,5.03
2022-08-08T22:12:16.621Z,5.67
2022-08-08T22:14:47.297Z,5.03
2022-08-08T22:17:18.387Z,5.40
2022-08-08T22:20:11.136Z,5.77
2022-08-08T22:22:38.037Z,5.57
2022-08-08T22:25:12.431Z,6.30
2022-08-08T22:28:02.830Z,6.30
2022-08-08T22:30:33.525Z,5.60
2022-08-08T22:33:01.900Z,6.43
2022-08-08T22:36:04.117Z,5.63
2022-08-08T22:38:17.931Z,5.37
2022-08-08T22:40:48.350Z,6.33
2022-08-08T22:43:18.911Z,6.00
2022-08-08T22:45:52.538Z,5.70
2022-08-08T22:48:21.459Z,6.30
2022-08-08T22:50:49.559Z,6.00
2022-08-08T22:54:29.533Z,5.87
2022-08-08T22:56:05.355Z,6.00
2022-08-08T22:58:35.194Z,6.40
2022-08-08T23:01:26.604Z,6.30
2022-08-08T23:03:54.278Z,6.40
2022-08-08T23:06:23.168Z,5.97
2022-08-08T23:08:55.165Z,6.60
2022-08-08T23:11:31.147Z,6.10
2022-08-08T23:14:13.295Z,6.50
2022-08-08T23:16:43.574Z,6.40
2022-08-08T23:19:12.270Z,6.33
2022-08-08T23:21:39.853Z,6.60
2022-08-08T23:24:07.740Z,7.10
2022-08-08T23:26:37.802Z,6.30
2022-08-08T23:29:10.826Z,6.23
2022-08-08T23:31:41.577Z,7.20
2022-08-08T23:34:16.929Z,7.03
2022-08-08T23:36:47.114Z,6.67
2022-08-08T23:39:15.631Z,6.77
2022-08-08T23:41:46.049Z,6.43
2022-08-08T23:44:15.313Z,6.90
2022-08-08T23:49:00.924Z,5.97
2022-08-08T23:49:32.841Z,6.70
2022-08-08T23:52:06.596Z,6.50
2022-08-08T23:54:41.271Z,6.77
2022-08-08T23:57:25.153Z,7.13
